createdAt,value
2023-05-24T00:01:25.967Z,16.86
2023-05-24T00:03:54.998Z,16.83
2023-05-24T00:06:23.240Z,16.86
2023-05-24T00:08:50.956Z,16.81
2023-05-24T00:11:19.435Z,16.70
2023-05-24T00:13:47.519Z,16.84
2023-05-24T00:16:15.896Z,16.83
2023-05-24T00:18:47.148Z,16.82
2023-05-24T00:21:15.639Z,16.66
2023-05-24T00:23:44.133Z,16.74
2023-05-24T00:26:12.331Z,16.70
2023-05-24T00:28:44.419Z,16.70
2023-05-24T00:31:12.507Z,16.67
2023-05-24T00:33:40.196Z,16.66
2023-05-24T00:36:08.247Z,16.76
2023-05-24T00:38:36.048Z,16.85
2023-05-24T00:41:04.237Z,16.69
2023-05-24T00:43:31.899Z,16.73
2023-05-24T00:46:22.623Z,16.81
2023-05-24T00:48:51.197Z,16.88
2023-05-24T00:51:19.511Z,16.74
2023-05-24T00:53:49.221Z,16.67
2023-05-24T00:56:18.347Z,16.74
2023-05-24T00:58:47.082Z,16.68
2023-05-24T01:01:15.241Z,16.68
2023-05-24T01:03:43.524Z,16.71
2023-05-24T01:06:16.136Z,16.85
2023-05-24T01:09:01.089Z,16.63
2023-05-24T01:11:40.218Z,16.62
2023-05-24T01:14:29.326Z,16.57
2023-05-24T01:17:15.117Z,16.47
2023-05-24T01:20:09.089Z,16.54
2023-05-24T01:22:45.803Z,16.53
2023-05-24T01:25:25.645Z,16.75
2023-05-24T01:27:53.902Z,16.65
2023-05-24T01:30:22.084Z,16.52
2023-05-24T01:32:50.200Z,16.53
2023-05-24T01:35:17.946Z,16.55
2023-05-24T01:37:45.957Z,16.47
2023-05-24T01:40:13.935Z,16.53
2023-05-24T01:42:48.270Z,16.53
2023-05-24T01:45:52.657Z,16.39
2023-05-24T01:48:34.661Z,16.46
2023-05-24T01:51:07.813Z,16.38
2023-05-24T01:53:41.671Z,16.55
2023-05-24T01:56:12.396Z,16.33
2023-05-24T01:58:44.042Z,16.27
2023-05-24T02:01:14.203Z,16.22
2023-05-24T02:03:42.415Z,16.16
2023-05-24T02:06:10.900Z,16.21
2023-05-24T02:08:41.039Z,16.12
2023-05-24T02:11:08.853Z,16.10
2023-05-24T02:13:36.825Z,16.04
2023-05-24T02:16:06.499Z,16.01
2023-05-24T02:18:34.989Z,15.93
2023-05-24T02:21:03.784Z,15.85
2023-05-24T02:23:31.853Z,15.96
2023-05-24T02:26:01.462Z,15.87
2023-05-24T02:28:32.350Z,15.92
2023-05-24T02:31:00.266Z,16.00
2023-05-24T02:33:29.904Z,16.14
2023-05-24T02:35:57.932Z,16.27
2023-05-24T02:38:26.553Z,16.41
2023-05-24T02:40:54.354Z,16.23
2023-05-24T02:43:22.543Z,16.27
2023-05-24T02:45:50.458Z,16.15
2023-05-24T02:48:18.670Z,16.21
2023-05-24T02:50:46.423Z,16.36
2023-05-24T02:53:14.629Z,16.40
2023-05-24T02:55:44.079Z,16.36
2023-05-24T02:58:13.702Z,16.35
2023-05-24T03:00:43.113Z,16.41
2023-05-24T03:03:11.519Z,16.53
2023-05-24T03:05:39.327Z,16.56
2023-05-24T03:08:07.972Z,16.56
2023-05-24T03:10:36.460Z,16.54
2023-05-24T03:13:04.494Z,16.62
2023-05-24T03:15:32.500Z,16.64
2023-05-24T03:18:01.014Z,16.59
2023-05-24T03:20:29.037Z,16.65
2023-05-24T03:22:57.100Z,16.63
2023-05-24T03:25:24.790Z,16.65
2023-05-24T03:27:52.875Z,16.62
2023-05-24T03:30:22.271Z,16.68
2023-05-24T03:32:54.952Z,16.72
2023-05-24T03:35:22.686Z,16.71
2023-05-24T03:37:50.929Z,16.75
2023-05-24T03:40:19.002Z,16.75
2023-05-24T03:42:56.453Z,16.75
2023-05-24T03:45:40.182Z,16.85
2023-05-24T03:48:08.699Z,16.86
2023-05-24T03:50:36.475Z,16.88
2023-05-24T03:53:04.775Z,16.77
2023-05-24T03:55:32.619Z,16.79
2023-05-24T03:58:00.700Z,16.84
2023-05-24T04:00:29.281Z,16.89
2023-05-24T04:02:57.601Z,17.05
2023-05-24T04:05:27.311Z,17.18
2023-05-24T04:07:55.695Z,17.26
2023-05-24T04:10:23.556Z,17.39
2023-05-24T04:12:51.647Z,17.50
2023-05-24T04:15:19.500Z,17.58
2023-05-24T04:17:47.855Z,17.70
2023-05-24T04:20:16.934Z,17.81
2023-05-24T04:22:45.019Z,17.82
2023-05-24T04:25:13.104Z,17.99
2023-05-24T04:27:41.375Z,18.00
2023-05-24T04:30:10.505Z,18.18
2023-05-24T04:32:40.692Z,18.21
2023-05-24T04:35:09.665Z,18.41
2023-05-24T04:37:37.827Z,18.41
2023-05-24T04:40:06.225Z,18.41
2023-05-24T04:42:34.651Z,18.64
2023-05-24T04:45:02.451Z,18.69
2023-05-24T04:47:30.603Z,18.85
2023-05-24T04:49:58.342Z,18.97
2023-05-24T04:52:26.638Z,19.19
2023-05-24T04:54:55.593Z,19.27
2023-05-24T04:57:23.910Z,19.43
2023-05-24T04:59:51.677Z,19.46
2023-05-24T05:02:19.862Z,19.72
2023-05-24T05:04:47.786Z,19.86
2023-05-24T05:07:16.046Z,20.12
2023-05-24T05:09:43.805Z,20.27
2023-05-24T05:12:12.893Z,20.60
2023-05-24T05:14:40.581Z,20.61
2023-05-24T05:17:08.836Z,20.71
2023-05-24T05:19:36.514Z,20.86
2023-05-24T05:22:04.598Z,21.14
2023-05-24T05:24:32.374Z,21.18
2023-05-24T05:27:00.806Z,21.51
2023-05-24T05:29:28.631Z,21.63
2023-05-24T05:31:56.802Z,22.05
2023-05-24T05:34:24.509Z,21.93
2023-05-24T05:36:52.568Z,22.45
2023-05-24T05:39:20.534Z,22.47
2023-05-24T05:41:48.527Z,22.68
2023-05-24T05:44:16.339Z,22.46
2023-05-24T05:46:46.402Z,22.49
2023-05-24T05:49:15.393Z,22.46
2023-05-24T05:51:43.421Z,22.35
2023-05-24T05:54:15.470Z,22.13
2023-05-24T05:56:48.264Z,22.29
2023-05-24T05:59:16.622Z,22.38
2023-05-24T06:01:49.270Z,22.75
2023-05-24T06:04:17.858Z,23.11
2023-05-24T06:06:49.659Z,23.40
2023-05-24T06:09:17.989Z,24.15
2023-05-24T06:11:46.064Z,24.31
2023-05-24T06:14:21.367Z,24.51
2023-05-24T06:16:49.499Z,24.83
2023-05-24T06:19:18.293Z,25.02
2023-05-24T06:21:48.311Z,24.95
2023-05-24T06:24:20.653Z,25.10
2023-05-24T06:26:50.882Z,25.04
2023-05-24T06:29:22.667Z,24.88
2023-05-24T06:31:51.313Z,24.93
2023-05-24T06:34:21.542Z,25.17
2023-05-24T06:36:51.323Z,24.95
2023-05-24T06:39:19.908Z,24.69
2023-05-24T06:41:51.215Z,24.44
2023-05-24T06:44:31.914Z,24.53
2023-05-24T06:47:02.963Z,24.33
2023-05-24T06:49:30.776Z,24.50
2023-05-24T06:51:58.940Z,24.39
2023-05-24T06:54:26.825Z,24.70
2023-05-24T06:56:54.799Z,24.86
2023-05-24T06:59:23.506Z,24.79
2023-05-24T07:01:57.416Z,24.99
2023-05-24T07:04:26.211Z,25.00
2023-05-24T07:06:54.238Z,25.23
2023-05-24T07:09:22.371Z,25.69
2023-05-24T07:11:50.469Z,25.81
2023-05-24T07:14:18.298Z,26.28
2023-05-24T07:16:46.940Z,27.53
2023-05-24T07:19:14.769Z,27.89
2023-05-24T07:21:42.713Z,28.55
2023-05-24T07:24:10.899Z,27.82
2023-05-24T07:26:39.477Z,27.80
2023-05-24T07:29:07.273Z,27.33
2023-05-24T07:31:35.437Z,28.32
2023-05-24T07:34:03.220Z,31.31
2023-05-24T07:36:34.810Z,34.20
2023-05-24T07:39:06.027Z,36.58
2023-05-24T07:41:34.071Z,36.86
2023-05-24T07:44:01.848Z,36.64
2023-05-24T07:46:29.861Z,36.75
2023-05-24T07:48:57.626Z,36.09
2023-05-24T07:51:26.733Z,34.13
2023-05-24T07:53:54.491Z,32.88
2023-05-24T07:56:23.851Z,33.17
2023-05-24T07:58:51.989Z,33.77
2023-05-24T08:01:21.182Z,35.59
2023-05-24T08:03:49.819Z,35.15
2023-05-24T08:06:18.451Z,35.71
2023-05-24T08:08:47.752Z,35.96
2023-05-24T08:11:16.068Z,36.19
2023-05-24T08:13:45.077Z,36.30
2023-05-24T08:16:13.442Z,37.32
2023-05-24T08:18:41.587Z,38.08
2023-05-24T08:21:09.681Z,38.41
2023-05-24T08:23:37.462Z,37.99
2023-05-24T08:26:05.600Z,38.00
2023-05-24T08:28:33.504Z,38.49
2023-05-24T08:31:01.615Z,39.12
2023-05-24T08:33:29.884Z,40.11
2023-05-24T08:35:58.247Z,41.13
2023-05-24T08:38:26.637Z,41.26
2023-05-24T08:40:54.676Z,41.13
2023-05-24T08:43:23.430Z,41.30
2023-05-24T08:45:53.514Z,40.79
2023-05-24T08:48:22.071Z,38.86
2023-05-24T08:50:50.997Z,37.05
2023-05-24T08:53:21.903Z,35.13
2023-05-24T08:55:53.401Z,34.03
2023-05-24T08:58:21.260Z,34.10
2023-05-24T09:00:49.373Z,33.79
2023-05-24T09:03:18.360Z,35.08
2023-05-24T09:05:46.948Z,35.31
2023-05-24T09:08:18.222Z,35.08
2023-05-24T09:10:54.852Z,34.76
2023-05-24T09:13:26.940Z,34.92
2023-05-24T09:15:55.125Z,34.11
2023-05-24T09:18:23.089Z,33.87
2023-05-24T09:20:51.703Z,32.88
2023-05-24T09:23:19.751Z,32.37
2023-05-24T09:25:49.021Z,32.20
2023-05-24T09:28:18.562Z,33.31
2023-05-24T09:31:03.916Z,34.38
2023-05-24T09:33:34.606Z,33.56
2023-05-24T09:36:04.619Z,32.70
2023-05-24T09:38:32.746Z,32.21
2023-05-24T09:41:02.846Z,31.46
2023-05-24T09:43:31.855Z,30.94
2023-05-24T09:46:02.075Z,30.65
2023-05-24T09:48:30.977Z,30.31
2023-05-24T09:51:11.618Z,30.49
2023-05-24T09:53:44.666Z,30.44
2023-05-24T09:56:13.334Z,31.16
2023-05-24T09:58:42.376Z,31.17
2023-05-24T10:01:12.327Z,31.25
2023-05-24T10:03:52.517Z,31.81
2023-05-24T10:06:21.434Z,33.88
2023-05-24T10:08:50.382Z,35.16
2023-05-24T10:11:19.020Z,35.94
2023-05-24T10:13:48.091Z,35.46
2023-05-24T10:16:17.004Z,34.40
2023-05-24T10:18:44.990Z,33.20
2023-05-24T10:21:13.828Z,32.55
2023-05-24T10:23:49.972Z,31.91
2023-05-24T10:26:19.741Z,31.15
2023-05-24T10:28:55.223Z,30.59
2023-05-24T10:31:28.197Z,30.72
2023-05-24T10:34:06.565Z,30.30
2023-05-24T10:36:37.121Z,29.81
2023-05-24T10:39:08.007Z,29.54
2023-05-24T10:41:42.645Z,29.27
2023-05-24T10:44:18.244Z,29.02
2023-05-24T10:47:13.209Z,29.00
2023-05-24T10:49:52.737Z,29.00
2023-05-24T10:52:21.388Z,29.14
2023-05-24T10:55:09.787Z,29.19
2023-05-24T10:57:39.590Z,29.08
2023-05-24T11:00:34.684Z,29.29
2023-05-24T11:03:11.147Z,29.02
2023-05-24T11:05:59.932Z,28.47
2023-05-24T11:08:35.867Z,28.22
2023-05-24T11:13:43.319Z,28.66
2023-05-24T11:16:31.012Z,28.98
2023-05-24T11:19:04.499Z,29.26
2023-05-24T11:21:32.597Z,29.45
2023-05-24T11:24:01.943Z,29.44
2023-05-24T11:26:29.909Z,29.39
2023-05-24T11:29:02.534Z,29.13
2023-05-24T11:31:32.134Z,29.01
2023-05-24T11:34:01.637Z,28.85
2023-05-24T11:36:30.907Z,28.86
2023-05-24T11:38:58.951Z,28.56
2023-05-24T11:41:26.945Z,28.46
2023-05-24T11:43:54.942Z,28.37
2023-05-24T11:46:23.008Z,28.51
2023-05-24T11:49:00.791Z,28.33
2023-05-24T11:51:30.677Z,28.49
2023-05-24T11:53:59.549Z,28.33
2023-05-24T11:56:33.163Z,28.35
2023-05-24T11:59:12.967Z,28.14
2023-05-24T12:01:40.869Z,27.96
2023-05-24T12:04:10.240Z,27.62
2023-05-24T12:06:43.032Z,27.49
2023-05-24T12:09:16.680Z,27.41
2023-05-24T12:11:47.356Z,27.19
2023-05-24T12:14:34.649Z,27.06
2023-05-24T12:17:02.616Z,26.88
2023-05-24T12:19:35.081Z,26.80
2023-05-24T12:22:08.009Z,26.73
2023-05-24T12:24:37.618Z,26.75
2023-05-24T12:27:09.161Z,26.71
2023-05-24T12:29:40.287Z,27.12
2023-05-24T12:32:13.698Z,27.10
2023-05-24T12:34:44.524Z,26.88
2023-05-24T12:37:13.680Z,26.89
2023-05-24T12:39:43.970Z,26.93
2023-05-24T12:42:16.231Z,26.85
2023-05-24T12:44:45.347Z,27.08
2023-05-24T12:47:13.418Z,26.99
2023-05-24T12:49:41.755Z,27.03
2023-05-24T12:52:09.612Z,27.04
2023-05-24T12:54:37.712Z,26.91
2023-05-24T12:57:05.792Z,26.91
2023-05-24T12:59:34.235Z,26.93
2023-05-24T13:02:02.273Z,26.87
2023-05-24T13:04:33.745Z,26.56
2023-05-24T13:07:03.204Z,26.24
2023-05-24T13:09:31.305Z,26.07
2023-05-24T13:11:59.166Z,25.55
2023-05-24T13:14:27.426Z,25.24
2023-05-24T13:16:55.313Z,25.04
2023-05-24T13:19:23.393Z,24.70
2023-05-24T13:21:51.129Z,24.67
2023-05-24T13:24:20.360Z,24.53
2023-05-24T13:26:48.294Z,24.43
2023-05-24T13:31:47.611Z,24.17
2023-05-24T13:34:15.822Z,24.17
2023-05-24T13:36:45.339Z,23.99
2023-05-24T13:39:16.299Z,24.02
2023-05-24T13:41:45.797Z,23.93
2023-05-24T13:44:15.728Z,23.94
2023-05-24T13:46:44.730Z,23.89
2023-05-24T13:49:12.899Z,23.91
2023-05-24T13:51:40.919Z,23.96
2023-05-24T13:54:09.275Z,24.10
2023-05-24T13:56:37.318Z,24.08
2023-05-24T13:59:06.651Z,24.29
2023-05-24T14:01:37.104Z,24.86
2023-05-24T14:04:06.135Z,24.71
2023-05-24T14:06:34.849Z,24.82
2023-05-24T14:09:02.873Z,24.87
2023-05-24T14:11:31.957Z,24.73
2023-05-24T14:16:31.435Z,24.64
2023-05-24T14:18:59.680Z,24.71
2023-05-24T14:21:27.798Z,24.66
2023-05-24T14:23:55.976Z,24.63
2023-05-24T14:26:24.046Z,24.70
2023-05-24T14:28:55.346Z,24.82
2023-05-24T14:31:24.303Z,24.85
2023-05-24T14:33:52.364Z,24.80
2023-05-24T14:36:20.105Z,24.75
2023-05-24T14:38:48.076Z,24.62
2023-05-24T14:41:16.384Z,24.62
2023-05-24T14:43:44.525Z,24.44
2023-05-24T14:46:12.315Z,24.38
2023-05-24T14:48:41.706Z,24.37
2023-05-24T14:51:09.774Z,24.28
2023-05-24T14:53:37.782Z,24.35
2023-05-24T14:56:07.526Z,24.24
2023-05-24T14:58:36.021Z,24.32
2023-05-24T15:01:03.994Z,24.31
2023-05-24T15:03:32.149Z,24.31
2023-05-24T15:06:00.211Z,24.36
2023-05-24T15:08:28.344Z,24.55
2023-05-24T15:10:58.706Z,24.58
2023-05-24T15:13:27.226Z,24.55
2023-05-24T15:15:56.726Z,24.62
2023-05-24T15:18:27.432Z,24.77
2023-05-24T15:20:56.385Z,24.80
2023-05-24T15:23:25.443Z,24.91
2023-05-24T15:25:53.258Z,25.09
2023-05-24T15:28:21.712Z,25.07
2023-05-24T15:30:50.309Z,25.12
2023-05-24T15:33:18.440Z,25.34
2023-05-24T15:35:46.490Z,25.29
2023-05-24T15:38:17.641Z,25.15
2023-05-24T15:40:46.325Z,25.05
2023-05-24T15:43:15.844Z,25.06
2023-05-24T15:45:44.495Z,25.00
2023-05-24T15:48:13.039Z,25.04
2023-05-24T15:50:53.974Z,25.01
2023-05-24T15:53:29.423Z,24.71
2023-05-24T15:55:57.516Z,24.72
2023-05-24T15:58:25.540Z,24.50
2023-05-24T16:00:54.457Z,24.48
2023-05-24T16:03:22.532Z,24.41
2023-05-24T16:05:50.703Z,24.36
2023-05-24T16:08:18.857Z,24.14
2023-05-24T16:10:46.651Z,23.91
2023-05-24T16:13:14.868Z,23.72
2023-05-24T16:15:42.620Z,23.64
2023-05-24T16:18:10.840Z,23.45
2023-05-24T16:20:39.053Z,23.48
2023-05-24T16:23:07.106Z,23.17
2023-05-24T16:25:34.784Z,23.20
2023-05-24T16:28:03.728Z,23.29
2023-05-24T16:30:31.441Z,23.16
2023-05-24T16:32:59.569Z,23.18
2023-05-24T16:35:27.346Z,23.07
2023-05-24T16:37:56.180Z,23.09
2023-05-24T16:40:23.845Z,22.96
2023-05-24T16:42:53.734Z,22.85
2023-05-24T16:45:21.719Z,22.78
2023-05-24T16:47:49.782Z,22.75
2023-05-24T16:50:17.654Z,22.77
2023-05-24T16:52:45.897Z,22.72
2023-05-24T16:55:14.896Z,22.72
2023-05-24T16:57:43.010Z,22.48
2023-05-24T17:00:11.276Z,22.45
2023-05-24T17:02:39.310Z,22.32
2023-05-24T17:05:07.576Z,22.05
2023-05-24T17:07:35.751Z,21.97
2023-05-24T17:10:03.979Z,21.83
2023-05-24T17:12:31.936Z,21.63
2023-05-24T17:14:59.649Z,21.45
2023-05-24T17:17:27.736Z,21.27
2023-05-24T17:19:55.645Z,21.13
2023-05-24T17:22:23.730Z,20.97
2023-05-24T17:24:51.427Z,20.93
2023-05-24T17:27:22.152Z,20.79
2023-05-24T17:29:50.298Z,20.82
2023-05-24T17:32:18.324Z,20.72
2023-05-24T17:34:46.032Z,20.64
2023-05-24T17:37:14.174Z,20.71
2023-05-24T17:39:41.864Z,20.53
2023-05-24T17:42:09.892Z,20.47
2023-05-24T17:44:37.582Z,20.43
2023-05-24T17:47:05.805Z,20.38
2023-05-24T17:49:33.604Z,20.33
2023-05-24T17:52:02.060Z,20.34
2023-05-24T17:54:29.873Z,20.29
2023-05-24T17:56:58.268Z,20.06
2023-05-24T17:59:26.268Z,20.01
2023-05-24T18:01:54.550Z,19.90
2023-05-24T18:04:22.382Z,19.98
2023-05-24T18:06:50.557Z,19.82
2023-05-24T18:09:18.799Z,19.67
2023-05-24T18:11:46.798Z,19.55
2023-05-24T18:14:14.750Z,19.46
2023-05-24T18:16:43.079Z,19.54
2023-05-24T18:19:10.913Z,19.43
2023-05-24T18:21:38.959Z,19.27
2023-05-24T18:24:07.390Z,19.34
2023-05-24T18:26:35.996Z,19.29
2023-05-24T18:29:03.751Z,19.17
2023-05-24T18:31:32.293Z,19.05
2023-05-24T18:34:01.918Z,19.14
2023-05-24T18:36:33.023Z,19.27
2023-05-24T18:39:00.822Z,19.28
2023-05-24T18:41:29.046Z,19.34
2023-05-24T18:43:56.767Z,19.24
2023-05-24T18:46:26.089Z,19.10
2023-05-24T18:48:54.320Z,19.00
2023-05-24T18:51:22.316Z,19.02
2023-05-24T18:53:51.750Z,18.88
2023-05-24T18:56:19.788Z,18.88
2023-05-24T18:58:49.757Z,18.76
2023-05-24T19:01:18.963Z,18.79
2023-05-24T19:03:46.863Z,18.71
2023-05-24T19:06:15.028Z,18.66
2023-05-24T19:08:42.776Z,18.56
2023-05-24T19:11:11.401Z,18.56
2023-05-24T19:13:40.135Z,18.37
2023-05-24T19:16:08.351Z,18.28
2023-05-24T19:18:36.226Z,18.27
2023-05-24T19:21:04.272Z,18.13
2023-05-24T19:23:32.086Z,18.12
2023-05-24T19:26:00.116Z,17.94
2023-05-24T19:28:27.817Z,17.81
2023-05-24T19:30:55.933Z,17.83
2023-05-24T19:33:24.053Z,17.71
2023-05-24T19:35:52.100Z,17.77
2023-05-24T19:38:20.552Z,17.58
2023-05-24T19:40:48.549Z,17.64
2023-05-24T19:43:16.312Z,17.47
2023-05-24T19:45:44.889Z,17.37
2023-05-24T19:48:12.992Z,17.37
2023-05-24T19:50:40.947Z,17.35
2023-05-24T19:53:09.078Z,17.36
2023-05-24T19:55:36.833Z,17.48
2023-05-24T19:58:04.875Z,17.46
2023-05-24T20:00:32.695Z,17.50
2023-05-24T20:03:01.020Z,17.44
2023-05-24T20:05:28.840Z,17.52
2023-05-24T20:07:56.953Z,17.61
2023-05-24T20:10:24.882Z,17.56
2023-05-24T20:12:52.831Z,17.58
2023-05-24T20:15:29.517Z,17.53
2023-05-24T20:17:58.102Z,17.41
2023-05-24T20:20:28.644Z,17.38
2023-05-24T20:22:56.700Z,17.38
2023-05-24T20:25:25.071Z,17.33
2023-05-24T20:27:53.096Z,17.35
2023-05-24T20:30:20.802Z,17.30
2023-05-24T20:32:49.239Z,17.19
2023-05-24T20:35:17.004Z,17.12
2023-05-24T20:37:44.954Z,17.28
2023-05-24T20:40:17.500Z,17.10
2023-05-24T20:42:45.591Z,17.24
2023-05-24T20:45:13.411Z,17.14
2023-05-24T20:47:41.431Z,17.05
2023-05-24T20:50:09.395Z,16.91
2023-05-24T20:52:37.573Z,16.81
2023-05-24T20:55:05.842Z,16.82
2023-05-24T20:57:34.074Z,16.85
2023-05-24T21:00:01.826Z,16.80
2023-05-24T21:02:30.017Z,16.75
2023-05-24T21:04:58.286Z,16.85
2023-05-24T21:07:26.379Z,16.67
2023-05-24T21:09:54.234Z,16.63
2023-05-24T21:12:22.263Z,16.57
2023-05-24T21:14:50.922Z,16.49
2023-05-24T21:17:18.879Z,16.49
2023-05-24T21:19:46.704Z,16.48
2023-05-24T21:22:15.145Z,16.41
2023-05-24T21:24:42.841Z,16.39
2023-05-24T21:27:11.114Z,16.36
2023-05-24T21:29:41.294Z,16.48
2023-05-24T21:32:09.257Z,16.41
2023-05-24T21:34:37.089Z,16.50
2023-05-24T21:37:05.360Z,16.48
2023-05-24T21:39:33.281Z,16.48
2023-05-24T21:42:02.244Z,16.40
2023-05-24T21:44:30.117Z,16.46
2023-05-24T21:46:58.157Z,16.56
2023-05-24T21:49:27.494Z,16.43
2023-05-24T21:51:55.591Z,16.37
2023-05-24T21:54:23.282Z,16.35
2023-05-24T21:56:51.384Z,16.26
2023-05-24T21:59:19.179Z,16.17
2023-05-24T22:01:48.223Z,16.14
2023-05-24T22:04:16.219Z,16.16
2023-05-24T22:06:45.999Z,16.06
2023-05-24T22:09:13.956Z,16.00
2023-05-24T22:11:42.115Z,15.92
2023-05-24T22:14:10.971Z,15.91
2023-05-24T22:16:39.039Z,15.89
2023-05-24T22:19:18.388Z,15.82
2023-05-24T22:21:50.375Z,15.70
2023-05-24T22:24:18.272Z,15.62
2023-05-24T22:26:47.063Z,15.68
2023-05-24T22:29:14.941Z,15.64
2023-05-24T22:31:43.007Z,15.34
2023-05-24T22:34:13.786Z,15.35
2023-05-24T22:36:42.076Z,15.19
2023-05-24T22:39:10.006Z,15.09
2023-05-24T22:41:37.977Z,15.11
2023-05-24T22:44:05.850Z,15.10
2023-05-24T22:46:33.972Z,15.05
2023-05-24T22:49:03.150Z,14.93
2023-05-24T22:51:31.596Z,14.82
2023-05-24T22:53:59.542Z,14.75
2023-05-24T22:56:27.570Z,14.58
2023-05-24T22:58:55.257Z,14.49
2023-05-24T23:01:23.386Z,14.61
2023-05-24T23:03:51.258Z,14.50
2023-05-24T23:06:21.192Z,14.42
2023-05-24T23:08:49.973Z,14.27
2023-05-24T23:11:18.133Z,14.45
2023-05-24T23:13:45.976Z,14.31
2023-05-24T23:16:18.079Z,14.31
2023-05-24T23:18:46.445Z,14.08
2023-05-24T23:21:14.538Z,14.05
2023-05-24T23:23:42.852Z,13.96
2023-05-24T23:26:10.935Z,13.88
2023-05-24T23:28:38.642Z,14.02
2023-05-24T23:31:06.692Z,13.92
2023-05-24T23:33:34.493Z,13.79
2023-05-24T23:36:02.463Z,13.79
2023-05-24T23:38:30.968Z,13.76
2023-05-24T23:40:59.000Z,13.73
2023-05-24T23:43:26.736Z,13.77
2023-05-24T23:45:54.806Z,13.71
2023-05-24T23:48:22.862Z,13.57
2023-05-24T23:50:54.289Z,13.47
2023-05-24T23:53:22.792Z,13.48
2023-05-24T23:55:50.881Z,13.36
2023-05-24T23:58:18.808Z,13.61
